Time;durP1;ratioP1;P1;durP2;ratioP2;P2;SDS_P1;SDS_P2;PMS_P1;PMS_P2;Temp;Humidity;BMP_temperature;BMP_pressure;BME280_temperature;BME280_humidity;BME280_pressure;Samples;Min_cycle;Max_cycle;Signal;HPM_P1;HPM_P2
2022/01/20 00:00:19;;;;;;;38.10;2.03;;;;;;;5.50;83.01;102464.31;5042457;28;20029;-41
2022/01/20 00:02:47;;;;;;;35.47;1.98;;;;;;;5.49;83.30;102461.75;5034966;28;20052;-42
2022/01/20 00:27:07;;;;;;;46.67;3.90;;;;;;;5.81;81.88;102483.47;5050922;28;20526;-43
2022/01/20 00:29:50;;;;;;;32.47;3.38;;;;;;;5.78;81.79;102483.72;5054272;28;20095;-42
2022/01/20 00:32:18;;;;;;;43.17;3.13;;;;;;;5.77;81.99;102481.16;5051480;28;20028;-43
2022/01/20 00:37:37;;;;;;;65.25;4.38;;;;;;;5.78;81.03;102472.16;5023563;28;20037;-42
2022/01/20 00:40:03;;;;;;;43.15;4.15;;;;;;;5.81;80.13;102479.97;5033992;28;20033;-42
2022/01/20 00:42:29;;;;;;;55.88;4.65;;;;;;;5.83;79.52;102476.22;5037463;28;20060;-42
2022/01/20 00:44:54;;;;;;;45.97;3.50;;;;;;;5.80;79.16;102484.47;5053609;28;20103;-42
2022/01/20 00:47:20;;;;;;;45.33;3.47;;;;;;;5.77;80.19;102481.16;5046710;28;20151;-42
2022/01/20 00:49:46;;;;;;;45.17;5.05;;;;;;;5.71;80.24;102488.66;5033454;28;20028;-42
2022/01/20 00:52:11;;;;;;;32.35;4.47;;;;;;;5.71;79.69;102482.44;5034689;28;20736;-42
2022/01/20 00:54:37;;;;;;;38.20;3.95;;;;;;;5.73;79.56;102481.34;5053600;28;20040;-42
2022/01/20 00:57:03;;;;;;;44.75;3.97;;;;;;;5.71;79.06;102485.97;5051802;28;20033;-43
2022/01/20 00:59:29;;;;;;;36.03;3.30;;;;;;;5.66;80.15;102489.91;5033594;28;20508;-41
2022/01/20 01:01:56;;;;;;;50.78;4.45;;;;;;;5.75;79.06;102477.75;5032336;28;20033;-42
2022/01/20 01:04:22;;;;;;;37.00;4.82;;;;;;;5.83;79.56;102497.59;5036342;28;20032;-41
2022/01/20 01:09:16;;;;;;;21.60;2.15;;;;;;;5.70;81.66;102502.94;5047636;28;20064;-41
2022/01/20 01:11:44;;;;;;;30.35;2.55;;;;;;;5.68;81.80;102498.69;5043722;28;20029;-42
2022/01/20 01:14:10;;;;;;;;;;;;;;;5.61;82.04;102473.38;5050620;28;20039;-42
2022/01/20 01:19:59;;;;;;;23.17;1.65;;;;;;;5.47;79.77;102475.19;5050785;28;20279;-43
2022/01/20 01:24:42;;;;;;;18.33;1.40;;;;;;;5.33;74.23;102483.34;5045920;28;20129;-40
2022/01/20 01:27:09;;;;;;;14.48;1.33;;;;;;;5.30;74.51;102488.06;5032770;28;20100;-40
2022/01/20 01:30:22;;;;;;;21.90;1.70;;;;;;;5.29;75.24;102492.50;5032085;28;20123;-42
2022/01/20 01:32:37;;;;;;;20.52;2.30;;;;;;;5.26;76.21;102482.06;5038040;28;20408;-41
2022/01/20 01:35:07;;;;;;;21.00;1.85;;;;;;;5.22;77.95;102475.22;5042379;28;20114;-41
2022/01/20 01:40:16;;;;;;;38.60;3.67;;;;;;;5.31;79.20;102482.59;5033233;28;20038;-41
2022/01/20 01:42:47;;;;;;;40.22;3.00;;;;;;;5.33;80.34;102499.34;5038175;28;20021;-42
2022/01/20 01:45:16;;;;;;;39.05;3.65;;;;;;;5.40;80.02;102497.13;5042982;28;20131;-40
2022/01/20 01:47:44;;;;;;;46.10;5.45;;;;;;;5.43;81.17;102505.78;5032480;28;20033;-41
2022/01/20 01:50:09;;;;;;;57.87;4.67;;;;;;;5.52;79.60;102503.41;5032471;28;20022;-40
2022/01/20 01:52:35;;;;;;;52.65;3.75;;;;;;;5.59;79.64;102507.38;5037821;28;20295;-40
2022/01/20 01:55:00;;;;;;;47.10;3.92;;;;;;;5.63;79.26;102511.50;5050992;28;20029;-41
2022/01/20 01:57:27;;;;;;;40.40;3.67;;;;;;;5.67;79.06;102518.34;5059426;28;20551;-41
2022/01/20 01:59:53;;;;;;;37.72;3.50;;;;;;;5.68;78.84;102512.03;5067899;28;20027;-42
2022/01/20 02:02:18;;;;;;;53.75;4.10;;;;;;;5.63;78.15;102508.84;5039216;28;20493;-41
2022/01/20 02:04:44;;;;;;;45.15;3.03;;;;;;;5.66;77.44;102511.28;5052070;28;20059;-41
2022/01/20 02:20:36;;;;;;;34.60;3.55;;;;;;;5.52;77.52;102495.41;5044154;28;20097;-41
2022/01/20 02:23:02;;;;;;;38.90;3.55;;;;;;;5.49;77.19;102510.66;5046331;28;20104;-41
2022/01/20 02:25:30;;;;;;;42.15;3.55;;;;;;;5.49;76.84;102499.97;5041103;28;20130;-40
2022/01/20 02:27:56;;;;;;;;;;;;;;;5.53;77.16;102516.66;5032774;28;20034;-41
2022/01/20 02:30:24;;;;;;;39.70;3.70;;;;;;;5.64;77.35;102505.22;5039035;28;19928;-42
2022/01/20 02:32:54;;;;;;;45.63;4.63;;;;;;;5.65;77.99;102504.25;5050022;28;20098;-40
2022/01/20 02:35:20;;;;;;;54.40;4.30;;;;;;;5.69;78.50;102500.41;5050611;28;20025;-41
2022/01/20 02:37:48;;;;;;;64.22;5.25;;;;;;;5.70;78.73;102502.94;5050153;28;20032;-41
2022/01/20 02:45:35;;;;;;;46.20;3.95;;;;;;;5.80;78.35;102495.16;5049572;28;20103;-40
2022/01/20 02:48:00;;;;;;;65.38;4.97;;;;;;;5.82;79.40;102485.22;5036435;28;20017;-41
2022/01/20 02:50:26;;;;;;;56.33;4.00;;;;;;;5.84;79.41;102499.28;5036004;28;20040;-41
2022/01/20 02:52:51;;;;;;;59.80;3.55;;;;;;;5.86;79.14;102497.38;5047189;28;20079;-42
2022/01/20 02:55:16;;;;;;;48.72;4.88;;;;;;;5.84;79.28;102503.78;5054020;28;20040;-41
2022/01/20 02:57:42;;;;;;;51.28;4.18;;;;;;;5.87;78.75;102491.06;5035954;28;20026;-41
2022/01/20 03:00:08;;;;;;;55.03;4.18;;;;;;;5.81;77.65;102493.31;5053270;28;20500;-40
2022/01/20 03:02:33;;;;;;;60.85;4.57;;;;;;;5.70;78.32;102491.41;5055532;28;20393;-41
2022/01/20 03:04:59;;;;;;;66.97;4.63;;;;;;;5.70;77.10;102502.94;5055214;28;20028;-41
2022/01/20 03:07:24;;;;;;;59.15;4.32;;;;;;;5.68;77.16;102496.00;5039431;28;20049;-41
2022/01/20 03:09:49;;;;;;;44.83;4.65;;;;;;;5.73;76.75;102496.53;5035653;28;20460;-41
2022/01/20 03:12:15;;;;;;;46.80;3.30;;;;;;;5.72;76.97;102489.50;5035544;28;20092;-41
2022/01/20 03:14:42;;;;;;;43.22;3.42;;;;;;;5.74;74.97;102503.59;5035072;28;20429;-41
2022/01/20 03:17:07;;;;;;;25.83;2.47;;;;;;;5.66;75.01;102500.59;5035035;28;20389;-41
2022/01/20 03:19:33;;;;;;;32.50;2.50;;;;;;;5.63;75.19;102504.34;5047532;28;20025;-41
2022/01/20 03:21:58;;;;;;;28.58;3.15;;;;;;;5.58;75.90;102509.19;5054953;28;20033;-41
2022/01/20 03:24:24;;;;;;;46.55;4.00;;;;;;;5.51;76.65;102513.25;5054726;28;20129;-41
2022/01/20 03:26:49;;;;;;;43.40;2.97;;;;;;;5.49;77.88;102509.81;5042657;28;20025;-41
2022/01/20 03:29:14;;;;;;;44.05;3.35;;;;;;;5.49;78.67;102501.81;5043028;28;20041;-41
2022/01/20 03:31:40;;;;;;;53.85;5.20;;;;;;;5.57;78.34;102494.09;5034946;28;20029;-41
2022/01/20 03:34:06;;;;;;;43.92;3.22;;;;;;;5.62;78.48;102504.47;5034822;28;20090;-40
2022/01/20 03:36:32;;;;;;;42.80;3.55;;;;;;;5.62;78.45;102518.69;5035241;28;20088;-41
2022/01/20 03:38:57;;;;;;;41.75;3.13;;;;;;;5.70;78.64;102520.81;5041753;28;20033;-41
2022/01/20 03:41:22;;;;;;;39.38;3.13;;;;;;;5.60;79.42;102538.44;5054680;28;20029;-41
2022/01/20 03:43:48;;;;;;;38.95;2.45;;;;;;;5.53;80.35;102539.81;5038884;28;20037;-41
2022/01/20 03:46:13;;;;;;;20.63;2.10;;;;;;;5.41;81.80;102550.41;5053129;28;20029;-41
2022/01/20 03:48:51;;;;;;;28.67;2.22;;;;;;;5.33;81.89;102547.41;5053886;28;20484;-40
2022/01/20 03:51:21;;;;;;;18.73;1.52;;;;;;;5.30;83.00;102550.31;5054887;28;20162;-41
2022/01/20 03:53:48;;;;;;;30.13;2.13;;;;;;;5.26;83.72;102546.13;5041351;28;20112;-41
2022/01/20 03:56:14;;;;;;;25.23;1.90;;;;;;;5.16;84.59;102539.69;5034573;28;20535;-40
2022/01/20 03:58:39;;;;;;;21.33;2.13;;;;;;;5.09;85.39;102543.78;5038132;28;20025;-42
2022/01/20 04:01:04;;;;;;;20.73;2.95;;;;;;;5.09;85.71;102539.28;5048006;28;20025;-40
2022/01/20 04:03:30;;;;;;;32.78;2.60;;;;;;;5.09;85.53;102539.28;5053599;28;20039;-40
2022/01/20 04:08:20;;;;;;;25.17;1.85;;;;;;;4.99;85.87;102548.88;5053921;28;20048;-40
2022/01/20 04:10:46;;;;;;;40.55;3.40;;;;;;;5.01;84.99;102552.28;5035075;28;20033;-41
2022/01/20 04:13:11;;;;;;;27.08;2.00;;;;;;;5.04;84.60;102568.94;5045544;28;20095;-40
2022/01/20 04:15:39;;;;;;;35.10;2.63;;;;;;;5.09;83.87;102551.78;5054254;28;20481;-40
2022/01/20 04:18:06;;;;;;;37.10;3.08;;;;;;;5.07;83.41;102568.72;5053483;28;20032;-41
2022/01/20 04:20:31;;;;;;;37.75;3.13;;;;;;;4.94;84.49;102577.66;5054431;28;20025;-40
2022/01/20 04:22:56;;;;;;;32.88;3.03;;;;;;;4.75;83.80;102583.38;5045702;28;20063;-41
2022/01/20 04:25:22;;;;;;;19.35;2.10;;;;;;;4.59;83.78;102579.03;5035872;28;20394;-40
2022/01/20 04:27:47;;;;;;;17.45;1.65;;;;;;;4.46;82.35;102572.81;5053820;28;20499;-40
2022/01/20 04:30:12;;;;;;;23.67;2.83;;;;;;;4.40;82.85;102575.88;5035820;28;20032;-40
2022/01/20 04:32:38;;;;;;;20.35;2.03;;;;;;;4.50;81.28;102584.09;5034075;28;20438;-40
2022/01/20 04:35:03;;;;;;;37.13;2.30;;;;;;;4.58;80.60;102588.00;5034232;28;20045;-40
2022/01/20 04:37:29;;;;;;;28.55;2.45;;;;;;;4.56;80.97;102584.59;5034232;28;20033;-41
2022/01/20 04:39:55;;;;;;;23.35;2.10;;;;;;;4.57;81.49;102588.09;5044246;28;20041;-41
2022/01/20 04:42:22;;;;;;;32.85;2.88;;;;;;;4.66;82.00;102606.19;5035110;28;20381;-41
2022/01/20 04:44:54;;;;;;;43.25;4.07;;;;;;;4.73;81.96;102612.81;5040943;28;20028;-41
2022/01/20 04:58:13;;;;;;;41.28;3.95;;;;;;;4.40;81.86;102626.53;5061218;28;20060;-40
2022/01/20 05:00:38;;;;;;;37.72;4.20;;;;;;;4.44;81.54;102633.34;5051919;28;20434;-41
2022/01/20 05:03:05;;;;;;;53.60;4.55;;;;;;;4.37;81.84;102621.34;5053438;28;20029;-41
2022/01/20 05:05:31;;;;;;;55.58;4.85;;;;;;;4.40;81.63;102631.84;5051380;28;20036;-40
2022/01/20 05:07:57;;;;;;;61.13;4.90;;;;;;;4.45;81.85;102645.75;5051202;28;20108;-41
2022/01/20 05:10:22;;;;;;;77.10;5.07;;;;;;;4.42;80.99;102643.25;5052045;28;20120;-41
2022/01/20 05:15:19;;;;;;;57.30;5.40;;;;;;;4.47;80.70;102637.63;5053049;28;20535;-41
2022/01/20 05:17:45;;;;;;;65.57;4.80;;;;;;;4.58;78.26;102636.00;5042184;28;20056;-40
2022/01/20 05:20:10;;;;;;;69.90;5.60;;;;;;;4.51;78.85;102645.34;5039772;28;20110;-42
2022/01/20 05:22:36;;;;;;;52.30;5.25;;;;;;;4.49;78.75;102643.72;5033247;28;20041;-41
2022/01/20 05:25:02;;;;;;;62.15;5.13;;;;;;;4.50;78.91;102645.44;5036674;28;20147;-41
2022/01/20 05:27:27;;;;;;;57.95;5.32;;;;;;;4.56;78.13;102656.56;5030228;28;20370;-41
2022/01/20 05:29:53;;;;;;;53.78;4.75;;;;;;;4.56;77.58;102655.72;5031913;28;20043;-41
2022/01/20 05:32:19;;;;;;;70.13;4.82;;;;;;;4.57;76.71;102662.75;5044592;28;20116;-42
2022/01/20 05:34:44;;;;;;;56.00;5.00;;;;;;;4.58;74.58;102657.34;5049551;28;20063;-41
2022/01/20 05:37:10;;;;;;;51.25;3.92;;;;;;;4.65;73.12;102664.94;5049768;28;20078;-41
2022/01/20 05:39:35;;;;;;;44.35;3.15;;;;;;;4.76;69.97;102665.09;5044065;28;20159;-40
2022/01/20 05:42:00;;;;;;;37.88;4.38;;;;;;;4.80;70.15;102675.47;5048150;28;20087;-41
2022/01/20 05:44:26;;;;;;;36.65;3.50;;;;;;;4.88;70.28;102664.31;5048076;28;20484;-41
2022/01/20 05:46:52;;;;;;;43.75;4.38;;;;;;;4.94;70.06;102682.56;5034580;28;20164;-41
2022/01/20 05:49:21;;;;;;;35.25;2.97;;;;;;;4.89;70.26;102695.34;5031905;28;20443;-41
2022/01/20 05:51:47;;;;;;;;;;;;;;;4.88;70.20;102691.00;5032947;28;20030;-42
2022/01/20 05:54:12;;;;;;;36.78;3.28;;;;;;;4.92;70.05;102692.47;5043853;28;19924;-41
2022/01/20 05:56:37;;;;;;;29.13;3.28;;;;;;;4.93;70.35;102699.56;5045778;28;20036;-41
2022/01/20 05:59:03;;;;;;;37.33;3.20;;;;;;;4.91;70.43;102704.13;5051775;28;20495;-41
2022/01/20 06:01:31;;;;;;;38.80;2.80;;;;;;;4.90;71.63;102710.44;5050122;28;20029;-42
2022/01/20 06:03:57;;;;;;;30.80;3.28;;;;;;;4.89;74.11;102689.16;5049634;28;20053;-42
2022/01/20 06:06:22;;;;;;;45.05;2.83;;;;;;;4.81;73.91;102705.66;5040268;28;20052;-42
2022/01/20 06:08:47;;;;;;;33.25;3.03;;;;;;;4.71;74.65;102705.38;5035633;28;20386;-41
2022/01/20 06:11:13;;;;;;;34.78;2.65;;;;;;;4.57;73.45;102698.28;5050071;28;20446;-42
2022/01/20 06:13:38;;;;;;;24.17;2.78;;;;;;;4.53;73.00;102699.44;5037558;28;20037;-41
2022/01/20 06:16:04;;;;;;;28.45;2.78;;;;;;;4.48;71.77;102704.22;5032658;28;20123;-42
2022/01/20 06:18:29;;;;;;;32.80;3.40;;;;;;;4.42;70.79;102693.06;5040419;28;20426;-41
2022/01/20 06:20:56;;;;;;;36.92;2.47;;;;;;;4.35;69.74;102689.94;5032263;28;20497;-41
2022/01/20 06:23:22;;;;;;;39.75;2.63;;;;;;;4.35;69.58;102705.94;5036862;28;20463;-41
2022/01/20 06:25:47;;;;;;;28.73;3.13;;;;;;;4.40;68.16;102710.00;5048899;28;20051;-41
2022/01/20 06:28:15;;;;;;;28.73;2.38;;;;;;;4.43;69.20;102700.97;5040424;28;20136;-43
2022/01/20 06:30:40;;;;;;;25.85;2.55;;;;;;;4.46;67.91;102699.91;5060444;28;20028;-42
2022/01/20 06:33:07;;;;;;;30.20;2.67;;;;;;;4.46;68.97;102694.59;5071885;28;20035;-42
2022/01/20 06:35:32;;;;;;;30.20;2.65;;;;;;;4.47;68.57;102705.13;5053639;28;20147;-42
2022/01/20 06:37:58;;;;;;;35.38;2.97;;;;;;;4.42;69.46;102709.91;5055097;28;20029;-42
2022/01/20 06:40:24;;;;;;;32.08;2.70;;;;;;;4.40;70.24;102711.84;5050467;28;20079;-41
2022/01/20 06:42:49;;;;;;;26.55;2.90;;;;;;;4.38;70.16;102698.59;5048340;28;20034;-41
2022/01/20 06:45:17;;;;;;;30.00;3.22;;;;;;;4.38;68.85;102713.72;5033064;28;20030;-41
2022/01/20 06:47:42;;;;;;;24.10;2.20;;;;;;;4.37;68.83;102722.66;5032584;28;20026;-42
2022/01/20 06:50:10;;;;;;;32.03;2.65;;;;;;;4.33;67.94;102731.81;5038937;28;20513;-44
2022/01/20 06:52:36;;;;;;;39.97;2.72;;;;;;;4.28;68.68;102728.56;5045567;28;20116;-41
2022/01/20 06:55:05;;;;;;;30.00;2.60;;;;;;;4.35;67.66;102735.25;5048034;28;20153;-42
2022/01/20 06:57:32;;;;;;;36.33;2.80;;;;;;;4.32;69.31;102754.09;5038635;28;20028;-42
2022/01/20 06:59:57;;;;;;;24.95;2.50;;;;;;;4.37;71.36;102739.53;5047869;28;20073;-41
2022/01/20 07:02:23;;;;;;;35.85;2.50;;;;;;;4.41;70.21;102753.53;5031803;28;20041;-41
2022/01/20 07:04:49;;;;;;;17.92;2.67;;;;;;;4.48;69.28;102751.34;5039647;28;20393;-41
2022/01/20 07:07:14;;;;;;;42.65;2.45;;;;;;;4.51;68.92;102752.00;5036976;28;20059;-42
2022/01/20 07:09:40;;;;;;;28.00;3.10;;;;;;;4.47;69.22;102763.78;5046707;28;20036;-40
2022/01/20 07:12:05;;;;;;;21.27;2.95;;;;;;;4.47;67.50;102766.47;5029578;28;20056;-40
2022/01/20 07:14:31;;;;;;;17.30;1.85;;;;;;;4.43;68.58;102786.28;5037780;28;20051;-39
2022/01/20 07:16:57;;;;;;;20.85;2.40;;;;;;;4.43;67.08;102775.63;5043138;28;20036;-42
2022/01/20 07:19:22;;;;;;;31.63;2.40;;;;;;;4.38;67.67;102777.72;5040500;28;20474;-41
2022/01/20 07:21:48;;;;;;;22.08;2.40;;;;;;;4.33;68.84;102779.78;5048467;28;20029;-41
2022/01/20 07:24:13;;;;;;;30.00;2.65;;;;;;;4.35;68.12;102777.91;5044981;28;20041;-41
2022/01/20 07:26:39;;;;;;;36.15;2.83;;;;;;;4.38;68.58;102780.38;5034885;28;20500;-41
2022/01/20 07:29:04;;;;;;;29.13;3.08;;;;;;;4.38;67.87;102783.03;5048444;28;20033;-41
2022/01/20 07:31:30;;;;;;;22.50;2.90;;;;;;;4.40;68.46;102792.66;5051374;28;20396;-41
2022/01/20 07:33:56;;;;;;;38.88;3.42;;;;;;;4.47;68.81;102801.13;5044214;28;20083;-42
2022/01/20 07:36:22;;;;;;;24.30;2.35;;;;;;;4.47;71.44;102792.28;5049694;28;20033;-41
2022/01/20 07:38:47;;;;;;;34.92;3.80;;;;;;;4.35;73.66;102785.91;5034259;28;20104;-42
2022/01/20 07:41:12;;;;;;;44.83;4.03;;;;;;;4.25;74.64;102790.06;5048986;28;20025;-41
2022/01/20 07:43:39;;;;;;;35.28;3.67;;;;;;;4.13;75.12;102800.53;5049834;28;20067;-41
2022/01/20 07:46:04;;;;;;;45.17;3.35;;;;;;;4.12;74.30;102809.44;5046018;28;20489;-40
2022/01/20 07:48:29;;;;;;;42.03;3.70;;;;;;;4.03;77.15;102810.00;5039220;28;20033;-41
2022/01/20 07:50:55;;;;;;;36.35;3.08;;;;;;;4.02;75.26;102805.63;5037572;28;20025;-41
2022/01/20 07:53:20;;;;;;;30.67;4.07;;;;;;;4.03;74.35;102819.78;5044749;28;20060;-42
2022/01/20 07:55:45;;;;;;;24.90;2.30;;;;;;;4.04;73.79;102817.03;5046684;28;20059;-41
2022/01/20 07:58:11;;;;;;;37.65;3.40;;;;;;;4.06;73.93;102816.97;5046418;28;20355;-42
2022/01/20 08:00:36;;;;;;;34.47;3.20;;;;;;;4.03;74.22;102818.00;5052476;28;20547;-41
2022/01/20 08:03:01;;;;;;;40.22;4.07;;;;;;;4.01;74.38;102817.25;5050594;28;20059;-41
2022/01/20 08:05:27;;;;;;;48.55;3.13;;;;;;;4.15;74.07;102822.59;5054668;28;20029;-41
2022/01/20 08:07:52;;;;;;;36.38;2.67;;;;;;;4.20;75.14;102821.47;5055632;28;20476;-42
2022/01/20 08:10:17;;;;;;;35.22;3.40;;;;;;;4.27;74.21;102825.50;5052192;28;20064;-41
2022/01/20 08:12:43;;;;;;;36.42;3.05;;;;;;;4.33;73.52;102819.78;5053417;28;20028;-41
2022/01/20 08:15:12;;;;;;;45.90;3.45;;;;;;;4.35;70.22;102823.22;5045448;28;20028;-41
2022/01/20 08:17:38;;;;;;;36.65;2.92;;;;;;;4.49;69.48;102823.22;5061835;28;20121;-41
2022/01/20 08:20:05;;;;;;;39.78;3.28;;;;;;;4.62;69.37;102828.66;5048428;28;20021;-40
2022/01/20 08:22:34;;;;;;;28.30;3.42;;;;;;;4.72;68.88;102829.81;5044385;28;20036;-41
2022/01/20 08:25:18;;;;;;;31.27;3.05;;;;;;;4.73;68.84;102822.66;5044077;28;20077;-39
2022/01/20 08:27:44;;;;;;;36.05;5.85;;;;;;;4.77;67.95;102834.88;5039418;28;20041;-41
2022/01/20 08:30:12;;;;;;;30.83;4.35;;;;;;;4.85;67.35;102824.59;5040199;28;20070;-40
2022/01/20 08:32:38;;;;;;;;;;;;;;;4.84;67.09;102817.50;5047256;28;20033;-41
2022/01/20 08:35:06;;;;;;;25.13;3.05;;;;;;;4.73;67.55;102814.66;5043150;28;19916;-41
2022/01/20 08:37:32;;;;;;;36.70;2.85;;;;;;;4.81;68.40;102821.22;5033150;28;20028;-40
2022/01/20 08:39:58;;;;;;;37.88;3.28;;;;;;;4.77;69.84;102832.22;5033062;28;20548;-40
2022/01/20 08:42:24;;;;;;;31.90;3.38;;;;;;;4.78;70.69;102837.44;5035469;28;20041;-41
2022/01/20 08:44:49;;;;;;;36.80;3.53;;;;;;;4.80;71.71;102843.53;5036375;28;20037;-41
2022/01/20 08:47:20;;;;;;;46.95;4.13;;;;;;;4.83;71.62;102853.16;5032273;28;20033;-41
2022/01/20 08:49:47;;;;;;;29.83;3.30;;;;;;;4.92;72.08;102852.56;5041013;28;20032;-41
2022/01/20 08:52:12;;;;;;;47.05;3.70;;;;;;;4.85;72.08;102848.59;5045758;28;20055;-41
2022/01/20 08:54:38;;;;;;;48.10;5.00;;;;;;;4.91;70.58;102860.69;5043606;28;20037;-41
2022/01/20 08:57:04;;;;;;;30.30;2.92;;;;;;;5.01;67.59;102868.03;5035957;28;20103;-42
2022/01/20 08:59:29;;;;;;;40.97;3.22;;;;;;;5.00;65.46;102876.13;5037026;28;20063;-41
2022/01/20 09:01:55;;;;;;;26.73;2.92;;;;;;;5.34;63.33;102872.19;5042081;28;20028;-41
2022/01/20 09:04:20;;;;;;;24.10;3.22;;;;;;;6.40;61.31;102877.72;5036235;28;20025;-42
2022/01/20 09:06:45;;;;;;;22.50;2.90;;;;;;;7.14;57.93;102881.50;5037490;28;20047;-40
2022/01/20 09:09:11;;;;;;;23.08;2.00;;;;;;;7.73;57.36;102884.31;5042388;28;20025;-41
2022/01/20 09:11:43;;;;;;;34.42;2.70;;;;;;;8.28;55.38;102895.44;5051841;28;20028;-41
2022/01/20 09:17:13;;;;;;;30.10;3.53;;;;;;;8.13;56.32;102903.66;5019138;28;20044;-42
2022/01/20 09:19:38;;;;;;;39.90;3.97;;;;;;;7.41;59.45;102922.38;5018538;28;20041;-41
2022/01/20 09:22:05;;;;;;;49.15;3.47;;;;;;;6.96;60.26;102929.16;5029217;28;20111;-41
2022/01/20 09:24:30;;;;;;;29.85;3.50;;;;;;;6.45;61.11;102926.41;5040802;28;20049;-41
2022/01/20 09:26:56;;;;;;;35.85;3.67;;;;;;;6.18;60.94;102924.63;5049089;28;20031;-41
2022/01/20 09:29:21;;;;;;;42.78;3.70;;;;;;;5.74;59.87;102931.06;5051257;28;20372;-41
2022/01/20 09:31:49;;;;;;;29.15;2.85;;;;;;;5.64;60.53;102928.13;5045782;28;20039;-41
2022/01/20 09:34:15;;;;;;;38.85;3.08;;;;;;;6.06;61.19;102925.47;5046723;28;20025;-41
2022/01/20 09:36:41;;;;;;;28.15;2.92;;;;;;;6.90;57.14;102933.13;5050572;28;20381;-41
2022/01/20 09:39:06;;;;;;;32.50;3.85;;;;;;;7.67;57.28;102928.53;5052638;28;20425;-41
2022/01/20 09:41:31;;;;;;;35.85;3.67;;;;;;;7.87;55.13;102926.19;5052042;28;20029;-42
2022/01/20 09:43:57;;;;;;;44.75;3.30;;;;;;;7.75;54.69;102924.44;5045247;28;20119;-41
2022/01/20 09:46:23;;;;;;;40.22;4.03;;;;;;;7.35;55.51;102941.56;5031387;28;20492;-42
2022/01/20 09:48:48;;;;;;;25.02;3.30;;;;;;;6.98;57.55;102954.88;5032843;28;20075;-41
2022/01/20 09:51:13;;;;;;;37.75;3.22;;;;;;;6.42;64.21;102948.03;5031885;28;20528;-41
2022/01/20 09:53:39;;;;;;;49.30;4.35;;;;;;;5.86;68.26;102945.44;5047367;28;20028;-41
2022/01/20 09:56:05;;;;;;;30.80;3.13;;;;;;;5.59;69.96;102937.41;5051963;28;20549;-41
2022/01/20 09:58:30;;;;;;;37.20;3.67;;;;;;;5.22;72.34;102961.06;5048513;28;20020;-41
2022/01/20 10:00:58;;;;;;;33.92;3.72;;;;;;;5.07;71.90;102957.53;5051636;28;20025;-41
2022/01/20 10:03:23;;;;;;;;;;;;;;;4.94;73.61;102952.06;5052584;28;20033;-41
2022/01/20 10:05:51;;;;;;;35.35;3.20;;;;;;;5.02;72.35;102946.28;5051635;28;19927;-41
2022/01/20 10:08:24;;;;;;;37.47;2.97;;;;;;;5.44;69.78;102958.75;5052387;28;20041;-43
2022/01/20 10:10:54;;;;;;;30.77;2.92;;;;;;;5.89;68.62;102962.13;5037946;28;20041;-43
2022/01/20 10:13:25;;;;;;;36.15;3.08;;;;;;;6.22;66.47;102968.94;5032419;28;20033;-41
2022/01/20 10:16:33;;;;;;;27.65;2.97;;;;;;;6.75;62.15;102971.66;5042988;28;20052;-45
2022/01/20 10:18:59;;;;;;;;;;;;;;;7.31;60.39;102971.34;5041951;28;20061;-45
2022/01/20 10:21:33;;;;;;;34.72;4.15;;;;;;;7.37;59.83;102974.47;5056754;28;19912;-44
2022/01/20 10:24:10;;;;;;;29.73;2.78;;;;;;;7.36;60.37;102982.59;5035196;28;20384;-43
2022/01/20 10:26:36;;;;;;;28.08;3.47;;;;;;;7.56;59.98;102984.72;5047172;28;20030;-45
2022/01/20 10:29:08;;;;;;;26.77;3.42;;;;;;;7.26;60.21;102993.94;5039256;28;20473;-43
2022/01/20 10:31:37;;;;;;;35.10;3.42;;;;;;;7.02;59.34;102982.28;5043059;28;20037;-44
2022/01/20 10:34:06;;;;;;;30.75;2.92;;;;;;;6.75;61.32;102993.91;5049569;28;20033;-45
2022/01/20 10:36:37;;;;;;;30.88;3.15;;;;;;;6.57;62.02;102995.16;5041812;28;20423;-43
2022/01/20 10:39:03;;;;;;;32.75;3.65;;;;;;;6.55;62.15;103002.41;5031752;28;20064;-43
2022/01/20 10:41:34;;;;;;;31.83;2.60;;;;;;;6.46;63.05;103003.91;5037126;28;20466;-41
2022/01/20 10:44:11;;;;;;;29.23;2.47;;;;;;;6.79;63.40;103016.84;5041951;28;20431;-44
2022/01/20 10:46:50;;;;;;;25.58;3.67;;;;;;;7.36;61.36;103020.97;5049204;28;20029;-44
2022/01/20 10:49:16;;;;;;;27.90;2.60;;;;;;;7.88;57.85;103019.94;5048186;28;20037;-43
2022/01/20 10:52:52;;;;;;;31.48;2.90;;;;;;;8.09;57.88;103013.97;5059707;28;20403;-43
2022/01/20 10:55:23;;;;;;;26.75;2.55;;;;;;;8.30;56.28;103012.38;5062880;28;20029;-43
2022/01/20 10:57:51;;;;;;;26.42;2.67;;;;;;;8.18;57.05;103018.66;5066992;28;20040;-41
2022/01/20 11:00:19;;;;;;;35.83;3.28;;;;;;;7.90;57.55;103019.84;5060363;28;20374;-41
2022/01/20 11:02:48;;;;;;;;;;;;;;;7.56;59.38;103016.03;5049606;28;20040;-40
2022/01/20 11:05:16;;;;;;;29.58;3.20;;;;;;;7.46;59.53;103007.78;5057087;28;20373;-41
2022/01/20 11:07:42;;;;;;;44.33;4.20;;;;;;;7.52;60.08;103023.41;5069183;28;20395;-41
2022/01/20 11:10:10;;;;;;;31.40;3.63;;;;;;;7.71;58.80;103020.28;5075847;28;20091;-41
2022/01/20 11:12:35;;;;;;;31.27;2.85;;;;;;;7.88;59.69;103025.28;5062735;28;20052;-41
2022/01/20 11:15:01;;;;;;;26.85;2.72;;;;;;;8.74;56.83;103015.41;5052330;28;20509;-42
2022/01/20 11:17:29;;;;;;;38.70;3.08;;;;;;;8.99;55.32;103009.03;5063638;28;20389;-40
2022/01/20 11:20:13;;;;;;;36.05;2.58;;;;;;;8.40;56.40;103001.88;5065435;28;20059;-41
2022/01/20 11:22:57;;;;;;;32.60;3.78;;;;;;;7.96;57.77;103011.34;5059602;28;20164;-42
2022/01/20 11:25:25;;;;;;;43.80;3.85;;;;;;;7.57;57.74;103015.06;5056254;28;20396;-42
2022/01/20 11:27:51;;;;;;;;;;;;;;;7.60;57.27;103010.31;5063147;28;20222;-42
2022/01/20 11:30:16;;;;;;;27.52;3.17;;;;;;;8.09;55.63;103014.84;5056223;28;19917;-42
2022/01/20 11:32:45;;;;;;;35.03;3.10;;;;;;;8.13;54.58;103005.56;5063542;28;20058;-42
2022/01/20 11:35:11;;;;;;;48.83;4.07;;;;;;;8.03;55.64;103009.03;5062618;28;20029;-42
2022/01/20 11:37:40;;;;;;;37.35;4.10;;;;;;;8.25;58.47;103001.16;5052032;28;20040;-42
2022/01/20 11:40:11;;;;;;;35.78;2.80;;;;;;;8.46;55.44;102984.44;5048663;28;20025;-42
2022/01/20 11:42:36;;;;;;;17.98;3.78;;;;;;;8.61;55.75;102982.41;5048107;28;20036;-42
2022/01/20 11:45:21;;;;;;;37.03;3.33;;;;;;;8.14;56.68;102979.63;5055423;28;20492;-42
2022/01/20 11:47:47;;;;;;;28.85;2.75;;;;;;;7.60;59.36;102980.84;5055908;28;20444;-43
2022/01/20 11:50:16;;;;;;;29.48;2.65;;;;;;;7.78;59.30;102988.53;5053100;28;20104;-42
2022/01/20 11:52:42;;;;;;;34.85;2.45;;;;;;;8.39;57.67;102984.03;5050102;28;20140;-43
2022/01/20 11:55:12;;;;;;;28.15;3.05;;;;;;;8.78;57.75;102979.31;5053871;28;20025;-43
2022/01/20 11:57:37;;;;;;;42.28;3.10;;;;;;;9.01;55.29;102974.84;5055312;28;21029;-42
2022/01/20 12:00:17;;;;;;;33.22;2.88;;;;;;;8.91;54.42;102985.44;5070619;28;20099;-42
2022/01/20 12:02:42;;;;;;;37.65;3.13;;;;;;;8.60;55.22;102969.97;5049728;28;20088;-42
2022/01/20 12:05:29;;;;;;;38.10;5.78;;;;;;;8.13;57.64;102978.75;5042330;28;20033;-43
2022/01/20 12:08:05;;;;;;;27.23;2.85;;;;;;;7.72;59.35;102984.47;5042378;28;20388;-43
2022/01/20 12:10:30;;;;;;;35.85;3.75;;;;;;;7.48;60.43;102976.38;5040105;28;20069;-42
2022/01/20 12:13:07;;;;;;;14.10;2.15;;;;;;;7.21;61.62;102987.19;5039133;28;20065;-42
2022/01/20 12:15:32;;;;;;;22.13;2.47;;;;;;;7.12;62.01;102977.16;5042072;28;20021;-43
2022/01/20 12:17:58;;;;;;;27.33;1.83;;;;;;;6.96;62.30;102969.31;5045882;28;20040;-42
2022/01/20 12:20:24;;;;;;;30.65;2.22;;;;;;;7.24;61.77;102977.16;5039660;28;20094;-43
2022/01/20 12:22:50;;;;;;;32.47;3.20;;;;;;;7.61;61.62;102974.53;5037857;28;20029;-43
2022/01/20 12:25:16;;;;;;;22.23;2.72;;;;;;;7.61;61.82;102977.22;5046316;28;20025;-41
2022/01/20 12:27:42;;;;;;;29.60;3.22;;;;;;;7.69;62.50;102987.38;5031301;28;20059;-42
2022/01/20 12:30:24;;;;;;;33.97;3.40;;;;;;;7.49;63.70;102980.75;5038652;28;20026;-42
2022/01/20 12:33:01;;;;;;;17.95;2.40;;;;;;;7.70;62.36;102976.53;5049907;28;20032;-42
2022/01/20 12:35:48;;;;;;;25.85;2.60;;;;;;;7.94;60.95;102977.56;5039242;28;21201;-41
2022/01/20 12:38:15;;;;;;;26.10;2.70;;;;;;;8.07;61.89;102970.31;5050218;28;20056;-42
2022/01/20 12:40:40;;;;;;;48.95;3.17;;;;;;;8.07;59.88;102971.16;5031940;28;20041;-41